createdAt,value
2018-12-16T00:00:08.999Z,1010.11
2018-12-16T07:40:55.949Z,1006.62
2018-12-16T07:41:55.923Z,1006.60
2018-12-16T07:42:55.937Z,1006.59
2018-12-16T07:43:55.909Z,1006.58
2018-12-16T07:44:55.890Z,1006.57
2018-12-16T07:45:55.881Z,1006.61
2018-12-16T07:46:55.870Z,1006.64
2018-12-16T07:48:03.536Z,1006.69
2018-12-16T07:48:55.921Z,1006.68
2018-12-16T07:49:55.927Z,1006.62
2018-12-16T07:50:55.831Z,1006.70
2018-12-16T07:51:55.854Z,1006.74
2018-12-16T07:52:57.045Z,1006.71
2018-12-16T07:53:55.942Z,1006.69
2018-12-16T07:54:55.862Z,1006.73
2018-12-16T07:55:55.869Z,1006.73
2018-12-16T07:56:55.798Z,1006.65
2018-12-16T07:57:55.875Z,1006.66
2018-12-16T07:58:55.782Z,1006.71
2018-12-16T07:59:55.789Z,1006.70
2018-12-16T08:00:55.820Z,1006.70
2018-12-16T08:01:55.797Z,1006.74
2018-12-16T08:02:55.808Z,1006.74
2018-12-16T08:03:55.717Z,1006.78
2018-12-16T08:04:55.723Z,1006.81
2018-12-16T08:05:55.720Z,1006.83
2018-12-16T08:06:55.726Z,1006.84
2018-12-16T08:07:55.835Z,1006.83
2018-12-16T08:08:55.739Z,1006.86
2018-12-16T08:09:55.646Z,1006.83
2018-12-16T08:10:55.656Z,1006.85
2018-12-16T08:11:55.775Z,1006.85
2018-12-16T08:12:55.775Z,1006.82
2018-12-16T08:13:55.671Z,1006.87
2018-12-16T08:14:55.693Z,1006.82
2018-12-16T08:15:55.588Z,1006.86
2018-12-16T08:16:55.585Z,1006.87
2018-12-16T08:17:55.906Z,1006.87
2018-12-16T08:18:55.598Z,1006.83
2018-12-16T08:19:55.605Z,1006.85
2018-12-16T08:20:55.614Z,1006.86
2018-12-16T08:21:55.521Z,1006.86
2018-12-16T08:22:55.521Z,1006.90
2018-12-16T08:23:55.628Z,1006.80
2018-12-16T08:24:55.534Z,1006.83
2018-12-16T08:25:55.748Z,1006.88
2018-12-16T08:26:55.551Z,1006.92
2018-12-16T08:27:55.451Z,1006.86
2018-12-16T08:28:55.558Z,1006.92
2018-12-16T08:29:55.463Z,1006.87
2018-12-16T08:30:55.473Z,1006.90
2018-12-16T08:31:55.475Z,1006.92
2018-12-16T08:32:55.485Z,1006.92
2018-12-16T08:33:55.491Z,1006.95
2018-12-16T08:34:55.395Z,1006.95
2018-12-16T08:35:55.400Z,1006.95
2018-12-16T08:36:55.409Z,1006.93
2018-12-16T08:37:55.412Z,1006.98
2018-12-16T08:38:55.530Z,1007.02
2018-12-16T08:39:55.323Z,1007.04
2018-12-16T08:40:55.334Z,1007.05
2018-12-16T08:41:55.342Z,1007.05
2018-12-16T08:42:55.341Z,1007.04
2018-12-16T08:43:55.455Z,1007.02
2018-12-16T08:44:55.362Z,1007.02
2018-12-16T08:45:55.260Z,1007.07
2018-12-16T08:46:55.266Z,1007.06
2018-12-16T08:47:55.275Z,1007.02
2018-12-16T08:48:55.380Z,1007.02
2018-12-16T08:49:55.283Z,1007.07
2018-12-16T08:50:55.394Z,1007.06
2018-12-16T08:51:55.295Z,1007.03
2018-12-16T08:52:55.201Z,1007.00
2018-12-16T08:53:55.313Z,1007.03
2018-12-16T08:54:55.215Z,1007.11
2018-12-16T08:55:55.218Z,1006.98
2018-12-16T08:56:55.224Z,1007.03
2018-12-16T08:57:55.232Z,1007.04
2018-12-16T08:58:55.242Z,1007.00
2018-12-16T08:59:55.141Z,1006.95
2018-12-16T09:00:55.148Z,1006.92
2018-12-16T09:01:55.154Z,1006.96
2018-12-16T09:02:55.159Z,1006.94
2018-12-16T09:03:55.268Z,1006.95
2018-12-16T09:04:55.072Z,1006.99
2018-12-16T09:05:55.077Z,1007.00
2018-12-16T09:06:55.082Z,1006.92
2018-12-16T09:07:55.089Z,1006.98
2018-12-16T09:08:55.198Z,1007.07
2018-12-16T09:09:55.103Z,1007.02
2018-12-16T09:10:55.010Z,1007.02
2018-12-16T09:11:55.016Z,1007.06
2018-12-16T09:12:55.026Z,1007.04
2018-12-16T09:13:55.133Z,1007.05
2018-12-16T09:14:55.035Z,1007.01
2018-12-16T09:15:55.048Z,1007.02
2018-12-16T09:16:54.944Z,1007.06
2018-12-16T09:17:55.059Z,1007.11
2018-12-16T09:18:55.063Z,1007.10
2018-12-16T09:19:54.960Z,1007.04
2018-12-16T09:20:54.969Z,1007.08
2018-12-16T09:21:54.976Z,1007.02
2018-12-16T09:22:54.878Z,1007.00
2018-12-16T09:23:54.990Z,1006.97
2018-12-16T09:24:54.900Z,1006.99
2018-12-16T09:25:55.412Z,1006.97
2018-12-16T09:26:55.210Z,1006.96
2018-12-16T09:27:54.909Z,1006.99
2018-12-16T09:28:54.916Z,1006.95
2018-12-16T09:29:54.819Z,1007.02
2018-12-16T09:30:58.047Z,1007.03
2018-12-16T09:31:54.842Z,1007.01
2018-12-16T09:32:54.839Z,1006.97
2018-12-16T09:33:54.949Z,1007.03
2018-12-16T09:34:54.748Z,1007.04
2018-12-16T09:35:54.756Z,1007.06
2018-12-16T09:36:54.761Z,1007.11
2018-12-16T09:37:54.771Z,1007.08
2018-12-16T09:38:54.889Z,1007.09
2018-12-16T09:39:54.780Z,1007.10
2018-12-16T09:40:54.686Z,1007.06
2018-12-16T09:41:54.689Z,1007.12
2018-12-16T09:42:54.697Z,1007.07
2018-12-16T09:43:54.807Z,1007.10
2018-12-16T09:44:54.714Z,1007.11
2018-12-16T09:45:54.718Z,1007.07
2018-12-16T09:46:54.627Z,1007.12
2018-12-16T09:47:54.633Z,1007.13
2018-12-16T09:48:54.739Z,1007.09
2018-12-16T09:49:54.641Z,1007.13
2018-12-16T09:50:54.654Z,1007.12
2018-12-16T09:51:55.164Z,1007.04
2018-12-16T09:52:54.657Z,1007.06
2018-12-16T09:53:54.665Z,1007.02
2018-12-16T09:54:54.575Z,1007.02
2018-12-16T09:55:54.578Z,1006.97
2018-12-16T09:56:54.580Z,1006.98
2018-12-16T09:57:54.598Z,1007.00
2018-12-16T09:58:54.695Z,1006.98
2018-12-16T09:59:54.498Z,1007.04
2018-12-16T10:00:54.510Z,1007.06
2018-12-16T10:01:54.519Z,1007.05
2018-12-16T10:02:54.515Z,1007.07
2018-12-16T10:03:54.672Z,1007.09
2018-12-16T10:04:54.528Z,1007.14
2018-12-16T10:05:54.433Z,1007.10
2018-12-16T10:06:54.440Z,1007.09
2018-12-16T10:07:54.589Z,1007.08
2018-12-16T10:08:54.455Z,1007.11
2018-12-16T10:09:54.561Z,1007.14
2018-12-16T10:10:54.464Z,1007.11
2018-12-16T10:11:54.380Z,1007.11
2018-12-16T10:12:54.379Z,1007.13
2018-12-16T10:13:54.385Z,1007.14
2018-12-16T10:14:54.489Z,1007.10
2018-12-16T10:15:54.403Z,1007.13
2018-12-16T10:16:54.400Z,1007.07
2018-12-16T10:17:54.334Z,1007.12
2018-12-16T10:18:54.316Z,1007.09
2018-12-16T10:19:54.584Z,1007.02
2018-12-16T10:20:54.325Z,1007.05
2018-12-16T10:21:54.330Z,1007.01
2018-12-16T10:22:54.335Z,1006.90
2018-12-16T10:23:54.345Z,1006.95
2018-12-16T10:24:54.348Z,1006.93
2018-12-16T10:25:54.270Z,1006.94
2018-12-16T10:26:54.788Z,1006.92
2018-12-16T10:27:54.275Z,1006.95
2018-12-16T10:28:54.283Z,1006.87
2018-12-16T10:29:54.282Z,1006.87
2018-12-16T10:30:54.189Z,1006.91
2018-12-16T10:31:54.198Z,1006.88
2018-12-16T10:32:54.198Z,1006.86
2018-12-16T10:33:54.306Z,1006.84
2018-12-16T10:34:54.316Z,1006.92
2018-12-16T10:35:54.109Z,1006.83
2018-12-16T10:36:54.119Z,1006.87
2018-12-16T10:37:54.138Z,1006.88
2018-12-16T10:38:54.141Z,1006.90
2018-12-16T10:39:54.261Z,1006.98
2018-12-16T10:40:54.149Z,1006.91
2018-12-16T10:41:54.147Z,1006.96
2018-12-16T10:42:54.061Z,1006.96
2018-12-16T10:43:54.059Z,1006.99
2018-12-16T10:44:54.185Z,1006.98
2018-12-16T10:45:54.079Z,1006.98
2018-12-16T10:46:54.080Z,1006.95
2018-12-16T10:47:54.084Z,1006.92
2018-12-16T10:48:54.000Z,1006.96
2018-12-16T10:49:54.100Z,1006.89
2018-12-16T10:50:54.005Z,1006.94
2018-12-16T10:51:54.012Z,1006.90
2018-12-16T10:52:54.016Z,1006.91
2018-12-16T10:53:53.922Z,1006.87
2018-12-16T10:54:58.305Z,1006.88
2018-12-16T10:55:53.944Z,1006.88
2018-12-16T10:56:53.949Z,1006.89
2018-12-16T10:57:53.942Z,1006.85
2018-12-16T10:58:54.105Z,1006.89
2018-12-16T10:59:53.960Z,1006.86
2018-12-16T11:00:53.868Z,1006.91
2018-12-16T11:01:53.870Z,1006.94
2018-12-16T11:02:54.306Z,1006.93
2018-12-16T11:03:54.323Z,1006.95
2018-12-16T11:04:53.990Z,1006.96
2018-12-16T11:05:53.915Z,1006.92
2018-12-16T11:06:53.793Z,1006.96
2018-12-16T11:07:53.803Z,1006.94
2018-12-16T11:08:53.807Z,1006.91
2018-12-16T11:09:53.915Z,1006.90
2018-12-16T11:10:53.886Z,1006.93
2018-12-16T11:11:53.722Z,1006.83
2018-12-16T11:12:53.729Z,1006.86
2018-12-16T11:13:53.742Z,1006.85
2018-12-16T11:14:53.872Z,1006.82
2018-12-16T11:15:53.759Z,1006.82
2018-12-16T11:16:53.758Z,1006.88
2018-12-16T11:17:53.658Z,1006.84
2018-12-16T11:18:53.665Z,1006.84
2018-12-16T11:19:53.773Z,1006.83
2018-12-16T11:20:53.703Z,1006.80
2018-12-16T11:21:53.683Z,1006.81
2018-12-16T11:22:53.690Z,1006.87
2018-12-16T11:23:54.051Z,1006.79
2018-12-16T11:24:53.719Z,1006.79
2018-12-16T11:25:53.710Z,1006.81
2018-12-16T11:26:53.613Z,1006.83
2018-12-16T11:27:53.620Z,1006.79
2018-12-16T11:28:53.625Z,1006.84
2018-12-16T11:29:53.634Z,1006.79
2018-12-16T11:30:53.540Z,1006.73
2018-12-16T11:31:53.790Z,1006.74
2018-12-16T11:32:53.796Z,1006.67
2018-12-16T11:33:53.555Z,1006.71
2018-12-16T11:34:53.664Z,1006.65
2018-12-16T11:35:53.480Z,1006.64
2018-12-16T11:36:53.475Z,1006.56
2018-12-16T11:37:53.478Z,1006.53
2018-12-16T11:38:53.487Z,1006.59
2018-12-16T11:39:53.656Z,1006.57
2018-12-16T11:40:53.510Z,1006.60
2018-12-16T11:41:53.404Z,1006.64
2018-12-16T11:42:53.410Z,1006.68
2018-12-16T11:43:53.962Z,1006.61
2018-12-16T11:44:54.194Z,1006.62
2018-12-16T11:45:53.644Z,1006.62
2018-12-16T11:46:53.722Z,1006.65
2018-12-16T11:47:53.672Z,1006.64
2018-12-16T11:48:53.583Z,1006.64
2018-12-16T11:49:54.146Z,1006.64
2018-12-16T11:50:54.038Z,1006.59
2018-12-16T11:51:53.576Z,1006.52
2018-12-16T11:52:53.596Z,1006.59
2018-12-16T11:53:54.079Z,1006.50
2018-12-16T11:54:54.129Z,1006.47
2018-12-16T11:55:54.081Z,1006.50
2018-12-16T11:56:53.783Z,1006.56
2018-12-16T11:57:53.298Z,1006.55
2018-12-16T11:58:53.306Z,1006.53
2018-12-16T11:59:53.310Z,1006.57
2018-12-16T12:00:53.215Z,1006.51
2018-12-16T12:01:53.223Z,1006.52
2018-12-16T12:02:53.228Z,1006.56
2018-12-16T12:03:53.234Z,1006.56
2018-12-16T12:04:53.347Z,1006.55
2018-12-16T12:05:53.145Z,1006.52
2018-12-16T12:06:53.168Z,1006.54
2018-12-16T12:07:53.157Z,1006.49
2018-12-16T12:08:53.166Z,1006.51
2018-12-16T12:09:53.169Z,1006.53
2018-12-16T12:10:53.304Z,1006.46
2018-12-16T12:11:53.092Z,1006.46
2018-12-16T12:12:53.089Z,1006.51
2018-12-16T12:13:53.099Z,1006.46
2018-12-16T12:14:53.201Z,1006.50
2018-12-16T12:15:53.218Z,1006.48
2018-12-16T12:16:53.113Z,1006.48
2018-12-16T12:17:53.018Z,1006.50
2018-12-16T12:18:53.024Z,1006.47
2018-12-16T12:19:53.027Z,1006.51
2018-12-16T12:20:53.137Z,1006.51
2018-12-16T12:21:53.043Z,1006.46
2018-12-16T12:22:53.049Z,1006.51
2018-12-16T12:23:52.992Z,1006.50
2018-12-16T12:24:52.989Z,1006.50
2018-12-16T12:25:53.069Z,1006.49
2018-12-16T12:26:52.969Z,1006.49
2018-12-16T12:27:52.980Z,1006.49
2018-12-16T12:28:52.988Z,1006.51
2018-12-16T12:29:52.891Z,1006.50
2018-12-16T12:30:52.995Z,1006.54
2018-12-16T12:31:52.898Z,1006.57
2018-12-16T12:32:52.905Z,1006.53
2018-12-16T12:33:52.911Z,1006.56
2018-12-16T12:34:52.928Z,1006.59
2018-12-16T12:35:52.927Z,1006.61
2018-12-16T12:36:52.828Z,1006.61
2018-12-16T12:37:52.839Z,1006.59
2018-12-16T12:38:52.840Z,1006.58
2018-12-16T12:39:52.849Z,1006.60
2018-12-16T12:40:52.958Z,1006.65
2018-12-16T12:41:52.757Z,1006.65
2018-12-16T12:42:52.764Z,1006.63
2018-12-16T12:43:52.770Z,1006.66
2018-12-16T12:44:52.777Z,1006.58
2018-12-16T12:45:52.888Z,1006.61
2018-12-16T12:46:52.803Z,1006.61
2018-12-16T12:47:52.827Z,1006.60
2018-12-16T12:48:52.699Z,1006.60
2018-12-16T12:49:52.704Z,1006.55
2018-12-16T12:50:52.813Z,1006.57
2018-12-16T12:51:52.718Z,1006.56
2018-12-16T12:52:52.728Z,1006.54
2018-12-16T12:53:52.637Z,1006.54
2018-12-16T12:54:52.639Z,1006.56
2018-12-16T12:55:52.747Z,1006.56
2018-12-16T12:56:52.646Z,1006.63
2018-12-16T12:57:52.653Z,1006.60
2018-12-16T12:58:52.663Z,1006.66
2018-12-16T12:59:52.566Z,1006.68
2018-12-16T13:00:52.672Z,1006.69
2018-12-16T13:01:52.578Z,1006.70
2018-12-16T13:02:52.593Z,1006.67
2018-12-16T13:03:52.593Z,1006.69
2018-12-16T13:04:52.603Z,1006.68
2018-12-16T13:05:52.603Z,1006.70
2018-12-16T13:06:52.511Z,1006.70
2018-12-16T13:07:52.516Z,1006.74
2018-12-16T13:08:52.521Z,1006.71
2018-12-16T13:09:52.532Z,1006.73
2018-12-16T13:10:52.634Z,1006.71
2018-12-16T13:11:52.440Z,1006.68
2018-12-16T13:12:52.458Z,1006.69
2018-12-16T13:13:52.448Z,1006.67
2018-12-16T13:14:52.453Z,1006.67
2018-12-16T13:15:52.562Z,1006.69
2018-12-16T13:16:52.466Z,1006.70
2018-12-16T13:17:52.378Z,1006.68
2018-12-16T13:18:52.375Z,1006.70
2018-12-16T13:19:52.411Z,1006.64
2018-12-16T13:20:52.491Z,1006.73
2018-12-16T13:21:52.401Z,1006.67
2018-12-16T13:22:52.402Z,1006.70
2018-12-16T13:23:52.315Z,1006.71
2018-12-16T13:24:52.312Z,1006.71
2018-12-16T13:25:52.524Z,1006.73
2018-12-16T13:26:52.427Z,1006.78
2018-12-16T13:27:52.333Z,1006.76
2018-12-16T13:28:52.339Z,1006.76
2018-12-16T13:29:52.352Z,1006.84
2018-12-16T13:30:52.250Z,1006.84
2018-12-16T13:31:52.375Z,1006.82
2018-12-16T13:32:52.272Z,1006.79
2018-12-16T13:33:52.294Z,1006.79
2018-12-16T13:34:52.281Z,1006.83
2018-12-16T13:35:52.290Z,1006.82
2018-12-16T13:36:52.295Z,1006.83
2018-12-16T13:37:52.189Z,1006.83
2018-12-16T13:38:52.200Z,1006.81
2018-12-16T13:39:52.216Z,1006.83
2018-12-16T13:40:52.208Z,1006.80
2018-12-16T13:41:52.642Z,1006.77
2018-12-16T13:42:52.119Z,1006.77
2018-12-16T13:43:52.124Z,1006.78
2018-12-16T13:44:52.134Z,1006.79
2018-12-16T13:45:52.142Z,1006.77
2018-12-16T13:46:52.246Z,1006.84
2018-12-16T13:47:52.206Z,1006.81
2018-12-16T13:48:52.054Z,1006.80
2018-12-16T13:49:52.163Z,1006.81
2018-12-16T13:50:52.071Z,1006.85
2018-12-16T13:51:52.183Z,1006.82
2018-12-16T13:52:52.081Z,1006.81
2018-12-16T13:53:52.085Z,1006.80
2018-12-16T13:54:51.990Z,1006.79
2018-12-16T13:55:51.996Z,1006.78
2018-12-16T13:56:52.108Z,1006.82
2018-12-16T13:57:52.013Z,1006.83
2018-12-16T13:58:52.015Z,1006.83
2018-12-16T13:59:52.021Z,1006.80
2018-12-16T14:00:51.925Z,1006.79
2018-12-16T14:01:52.036Z,1006.76
2018-12-16T14:02:51.939Z,1006.74
2018-12-16T14:03:51.948Z,1006.74
2018-12-16T14:04:51.951Z,1006.71
2018-12-16T14:05:51.957Z,1006.76
2018-12-16T14:06:51.965Z,1006.74
2018-12-16T14:07:51.866Z,1006.77
2018-12-16T14:08:51.873Z,1006.68
2018-12-16T14:09:51.883Z,1006.71
2018-12-16T14:10:51.896Z,1006.71
2018-12-16T14:11:51.996Z,1006.72
2018-12-16T14:12:51.796Z,1006.67
2018-12-16T14:13:51.807Z,1006.62
2018-12-16T14:14:51.811Z,1006.63
2018-12-16T14:15:52.448Z,1006.65
2018-12-16T14:16:51.960Z,1006.70
2018-12-16T14:17:51.830Z,1006.65
2018-12-16T14:18:51.761Z,1006.70
2018-12-16T14:19:51.747Z,1006.66
2018-12-16T14:20:51.744Z,1006.64
2018-12-16T14:21:51.855Z,1006.66
2018-12-16T14:22:51.767Z,1006.69
2018-12-16T14:23:51.766Z,1006.72
2018-12-16T14:24:51.743Z,1006.74
2018-12-16T14:25:51.674Z,1006.75
2018-12-16T14:26:51.783Z,1006.78
2018-12-16T14:27:51.686Z,1006.82
2018-12-16T14:28:51.703Z,1006.82
2018-12-16T14:29:51.699Z,1006.84
2018-12-16T14:30:51.607Z,1006.83
2018-12-16T14:31:51.711Z,1006.86
2018-12-16T14:32:51.617Z,1006.87
2018-12-16T14:33:52.195Z,1006.85
2018-12-16T14:34:51.583Z,1006.92
2018-12-16T14:35:51.637Z,1006.92
2018-12-16T14:36:51.651Z,1006.93
2018-12-16T14:37:51.544Z,1006.96
2018-12-16T14:38:51.551Z,1006.97
2018-12-16T14:39:51.663Z,1006.97
2018-12-16T14:40:51.563Z,1006.94
2018-12-16T14:41:51.672Z,1006.90
2018-12-16T14:42:51.475Z,1006.89
2018-12-16T14:43:51.570Z,1006.86
2018-12-16T14:44:51.491Z,1006.92
2018-12-16T14:45:51.493Z,1006.92
2018-12-16T14:46:51.603Z,1006.86
2018-12-16T14:47:51.514Z,1006.89
2018-12-16T14:48:51.411Z,1006.92
2018-12-16T14:49:51.421Z,1006.94
2018-12-16T14:50:51.424Z,1007.01
2018-12-16T14:51:51.542Z,1007.02
2018-12-16T14:52:51.438Z,1007.01
2018-12-16T14:53:51.554Z,1007.03
2018-12-16T14:54:51.349Z,1006.98
2018-12-16T14:55:55.204Z,1006.98
2018-12-16T14:56:51.463Z,1007.01
2018-12-16T14:57:51.383Z,1007.04
2018-12-16T14:58:51.372Z,1007.06
2018-12-16T14:59:51.382Z,1007.10
2018-12-16T15:00:51.280Z,1007.11
2018-12-16T15:01:51.395Z,1007.09
2018-12-16T15:02:51.292Z,1007.13
2018-12-16T15:03:51.298Z,1007.12
2018-12-16T15:04:51.310Z,1007.10
2018-12-16T15:05:51.314Z,1007.14
2018-12-16T15:06:51.323Z,1007.17
2018-12-16T15:07:51.225Z,1007.15
2018-12-16T15:08:51.236Z,1007.22
2018-12-16T15:09:51.234Z,1007.21
2018-12-16T15:10:51.246Z,1007.28
2018-12-16T15:11:51.350Z,1007.24
2018-12-16T15:12:51.154Z,1007.25
2018-12-16T15:13:51.157Z,1007.24
2018-12-16T15:14:51.175Z,1007.24
2018-12-16T15:15:51.172Z,1007.25
2018-12-16T15:16:51.282Z,1007.19
2018-12-16T15:17:51.184Z,1007.17
2018-12-16T15:18:51.202Z,1007.18
2018-12-16T15:19:51.097Z,1007.19
2018-12-16T15:20:51.101Z,1007.15
2018-12-16T15:21:51.243Z,1007.18
2018-12-16T15:22:51.126Z,1007.23
2018-12-16T15:23:51.127Z,1007.19
2018-12-16T15:24:51.126Z,1007.21
2018-12-16T15:25:51.034Z,1007.21
2018-12-16T15:26:52.619Z,1007.22
2018-12-16T15:27:51.356Z,1007.27
2018-12-16T15:28:51.046Z,1007.26
2018-12-16T15:29:51.086Z,1007.26
2018-12-16T15:30:51.071Z,1007.30
2018-12-16T15:31:50.979Z,1007.28
2018-12-16T15:32:51.075Z,1007.30
2018-12-16T15:33:50.994Z,1007.29
2018-12-16T15:34:51.220Z,1007.34
2018-12-16T15:35:50.993Z,1007.34
2018-12-16T15:36:50.995Z,1007.27
2018-12-16T15:37:51.006Z,1007.27
2018-12-16T15:38:50.908Z,1007.34
2018-12-16T15:39:50.925Z,1007.33
2018-12-16T15:40:50.952Z,1007.33
2018-12-16T15:41:50.925Z,1007.35
2018-12-16T15:42:51.038Z,1007.32
2018-12-16T15:43:50.835Z,1007.35
2018-12-16T15:44:50.841Z,1007.34
2018-12-16T15:45:50.852Z,1007.36
2018-12-16T15:46:50.859Z,1007.33
2018-12-16T15:47:50.967Z,1007.34
2018-12-16T15:48:50.873Z,1007.38
2018-12-16T15:49:50.771Z,1007.36
2018-12-16T15:50:50.790Z,1007.40
2018-12-16T15:51:50.788Z,1007.38
2018-12-16T15:52:50.891Z,1007.40
2018-12-16T15:53:50.799Z,1007.43
2018-12-16T15:54:50.805Z,1007.37
2018-12-16T15:55:50.755Z,1007.42
2018-12-16T15:56:50.716Z,1007.44
2018-12-16T15:57:50.829Z,1007.45
2018-12-16T15:58:50.724Z,1007.41
2018-12-16T15:59:50.737Z,1007.40
2018-12-16T16:00:50.744Z,1007.45
2018-12-16T16:01:50.641Z,1007.43
2018-12-16T16:02:50.753Z,1007.39
2018-12-16T16:03:50.653Z,1007.40
2018-12-16T16:04:50.663Z,1007.36
2018-12-16T16:05:50.675Z,1007.38
2018-12-16T16:06:50.681Z,1007.40
2018-12-16T16:07:50.681Z,1007.41
2018-12-16T16:08:50.587Z,1007.44
2018-12-16T16:09:50.600Z,1007.49
2018-12-16T16:10:50.595Z,1007.43
2018-12-16T16:11:50.601Z,1007.46
2018-12-16T16:12:50.711Z,1007.46
2018-12-16T16:13:50.514Z,1007.46
2018-12-16T16:14:50.517Z,1007.46
2018-12-16T16:15:50.525Z,1007.46
2018-12-16T16:16:50.531Z,1007.47
2018-12-16T16:17:50.639Z,1007.49
2018-12-16T16:18:50.549Z,1007.51
2018-12-16T16:19:50.451Z,1007.49
2018-12-16T16:20:50.457Z,1007.46
2018-12-16T16:21:50.462Z,1007.54
2018-12-16T16:22:50.570Z,1007.53
2018-12-16T16:23:50.482Z,1007.51
2018-12-16T16:24:50.482Z,1007.49
2018-12-16T16:25:50.385Z,1007.52
2018-12-16T16:26:50.391Z,1007.52
2018-12-16T16:27:50.505Z,1007.53
2018-12-16T16:28:50.409Z,1007.55
2018-12-16T16:29:50.415Z,1007.52
2018-12-16T16:30:50.416Z,1007.54
2018-12-16T16:31:50.329Z,1007.50
2018-12-16T16:32:50.427Z,1007.53
2018-12-16T16:33:50.332Z,1007.50
2018-12-16T16:34:50.339Z,1007.50
2018-12-16T16:35:50.344Z,1007.53
2018-12-16T16:36:50.349Z,1007.52
2018-12-16T16:37:50.360Z,1007.49
2018-12-16T16:38:50.262Z,1007.53
2018-12-16T16:39:50.266Z,1007.54
2018-12-16T16:40:50.280Z,1007.53
2018-12-16T16:41:50.284Z,1007.54
2018-12-16T16:42:50.390Z,1007.56
2018-12-16T16:43:50.194Z,1007.58
2018-12-16T16:44:50.201Z,1007.54
2018-12-16T16:45:50.212Z,1007.61
2018-12-16T16:46:50.211Z,1007.63
2018-12-16T16:47:50.321Z,1007.58
2018-12-16T16:48:50.224Z,1007.59
2018-12-16T16:49:50.129Z,1007.67
2018-12-16T16:50:50.195Z,1007.62
2018-12-16T16:51:50.138Z,1007.60
2018-12-16T16:52:50.253Z,1007.65
2018-12-16T16:53:50.150Z,1007.59
2018-12-16T16:54:50.157Z,1007.61
2018-12-16T16:55:50.065Z,1007.64
2018-12-16T16:56:50.067Z,1007.65
2018-12-16T16:57:50.188Z,1007.68
2018-12-16T16:58:50.085Z,1007.68
2018-12-16T16:59:50.087Z,1007.65
2018-12-16T17:00:50.093Z,1007.62
2018-12-16T17:01:50.003Z,1007.64
2018-12-16T17:02:50.109Z,1007.64
2018-12-16T17:03:50.011Z,1007.70
2018-12-16T17:04:50.017Z,1007.68
2018-12-16T17:05:50.023Z,1007.70
2018-12-16T17:06:50.653Z,1007.76
2018-12-16T17:07:50.236Z,1007.74
2018-12-16T17:08:50.040Z,1007.73
2018-12-16T17:09:49.947Z,1007.71
2018-12-16T17:10:49.954Z,1007.72
2018-12-16T17:11:49.961Z,1007.71
2018-12-16T17:12:49.967Z,1007.79
2018-12-16T17:13:49.973Z,1007.80
2018-12-16T17:14:49.884Z,1007.81
2018-12-16T17:15:49.888Z,1007.84
2018-12-16T17:16:49.886Z,1007.82
2018-12-16T17:17:49.896Z,1007.81
2018-12-16T17:18:50.001Z,1007.82
2018-12-16T17:19:49.908Z,1007.86
2018-12-16T17:20:49.817Z,1007.83
2018-12-16T17:21:49.818Z,1007.82
2018-12-16T17:22:49.821Z,1007.84
2018-12-16T17:23:49.934Z,1007.78
2018-12-16T17:24:49.914Z,1007.77
2018-12-16T17:25:49.840Z,1007.76
2018-12-16T17:26:49.748Z,1007.75
2018-12-16T17:27:49.754Z,1007.75
2018-12-16T17:28:49.863Z,1007.74
2018-12-16T17:29:49.764Z,1007.75
2018-12-16T17:30:49.772Z,1007.78
2018-12-16T17:31:49.778Z,1007.78
2018-12-16T17:32:49.695Z,1007.74
2018-12-16T17:33:49.792Z,1007.76
2018-12-16T17:34:49.695Z,1007.79
2018-12-16T17:35:49.703Z,1007.80
2018-12-16T17:36:49.716Z,1007.76
2018-12-16T17:37:49.919Z,1007.81
2018-12-16T17:38:49.719Z,1007.81
2018-12-16T17:39:49.625Z,1007.84
2018-12-16T17:40:49.632Z,1007.83
2018-12-16T17:41:49.634Z,1007.81
2018-12-16T17:42:49.640Z,1007.82
2018-12-16T17:43:49.755Z,1007.83
2018-12-16T17:44:49.553Z,1007.86
2018-12-16T17:45:49.564Z,1007.87
2018-12-16T17:46:49.568Z,1007.84
2018-12-16T17:47:49.578Z,1007.82
2018-12-16T17:48:49.680Z,1007.78
2018-12-16T17:49:49.583Z,1007.85
2018-12-16T17:50:49.489Z,1007.85
2018-12-16T17:51:49.501Z,1007.81
2018-12-16T17:52:49.500Z,1007.83
2018-12-16T17:53:49.608Z,1007.85
2018-12-16T17:54:49.526Z,1007.90
2018-12-16T17:55:49.525Z,1007.86
2018-12-16T17:56:49.428Z,1007.90
2018-12-16T17:57:49.433Z,1008.00
2018-12-16T17:58:49.538Z,1007.96
2018-12-16T17:59:49.442Z,1007.94
2018-12-16T18:00:49.450Z,1007.96
2018-12-16T18:01:49.465Z,1007.96
2018-12-16T18:02:49.358Z,1007.95
2018-12-16T18:03:49.466Z,1007.97
2018-12-16T18:04:49.371Z,1008.02
2018-12-16T18:05:49.382Z,1008.04
2018-12-16T18:06:49.385Z,1008.04
2018-12-16T18:07:49.397Z,1008.01
2018-12-16T18:08:49.395Z,1008.08
2018-12-16T18:09:49.314Z,1008.05
2018-12-16T18:10:49.313Z,1008.10
2018-12-16T18:11:49.315Z,1008.07
2018-12-16T18:12:49.321Z,1008.07
2018-12-16T18:13:49.966Z,1008.05
2018-12-16T18:14:49.542Z,1008.11
2018-12-16T18:15:49.237Z,1008.09
2018-12-16T18:16:49.242Z,1008.08
2018-12-16T18:17:49.258Z,1008.06
2018-12-16T18:18:49.361Z,1008.10
2018-12-16T18:19:49.264Z,1008.09
2018-12-16T18:20:49.169Z,1008.06
2018-12-16T18:21:49.171Z,1008.08
2018-12-16T18:22:50.060Z,1008.10
2018-12-16T18:23:49.286Z,1008.08
2018-12-16T18:24:49.189Z,1008.14
2018-12-16T18:25:49.272Z,1008.13
2018-12-16T18:26:49.099Z,1008.18
2018-12-16T18:27:49.106Z,1008.21
2018-12-16T18:28:49.215Z,1008.17
2018-12-16T18:29:49.119Z,1008.19
2018-12-16T18:30:49.129Z,1008.26
2018-12-16T18:31:49.135Z,1008.27
2018-12-16T18:32:49.037Z,1008.28
2018-12-16T18:33:49.153Z,1008.31
2018-12-16T18:34:49.949Z,1008.30
2018-12-16T18:35:49.170Z,1008.28
2018-12-16T18:36:49.061Z,1008.32
2018-12-16T18:37:49.214Z,1008.33
2018-12-16T18:38:49.072Z,1008.34
2018-12-16T18:39:48.977Z,1008.31
2018-12-16T18:40:48.990Z,1008.32
2018-12-16T18:41:48.998Z,1008.28
2018-12-16T18:42:49.007Z,1008.25
2018-12-16T18:43:49.115Z,1008.29
2018-12-16T18:44:48.917Z,1008.28
2018-12-16T18:45:48.917Z,1008.28
2018-12-16T18:46:48.920Z,1008.33
2018-12-16T18:47:48.927Z,1008.32
2018-12-16T18:48:49.070Z,1008.35
2018-12-16T18:49:48.938Z,1008.31
2018-12-16T18:50:48.858Z,1008.32
2018-12-16T18:51:48.867Z,1008.29
2018-12-16T18:52:48.864Z,1008.34
2018-12-16T18:53:48.861Z,1008.28
2018-12-16T18:54:48.989Z,1008.29
2018-12-16T18:55:48.874Z,1008.29
2018-12-16T18:56:51.272Z,1008.32
2018-12-16T18:57:48.790Z,1008.33
2018-12-16T18:58:48.892Z,1008.32
2018-12-16T18:59:48.898Z,1008.35
2018-12-16T19:00:48.802Z,1008.30
2018-12-16T19:01:48.811Z,1008.33
2018-12-16T19:02:48.827Z,1008.31
2018-12-16T19:03:49.717Z,1008.29
2018-12-16T19:04:48.828Z,1008.31
2018-12-16T19:05:48.732Z,1008.36
2018-12-16T19:06:48.739Z,1008.39
2018-12-16T19:07:48.749Z,1008.33
2018-12-16T19:08:48.751Z,1008.36
2018-12-16T19:09:48.860Z,1008.35
2018-12-16T19:10:48.682Z,1008.35
2018-12-16T19:11:48.667Z,1008.38
2018-12-16T19:12:48.679Z,1008.35
2018-12-16T19:13:48.680Z,1008.37
2018-12-16T19:14:48.892Z,1008.38
2018-12-16T19:15:48.590Z,1008.40
2018-12-16T19:16:48.707Z,1008.47
2018-12-16T19:17:48.608Z,1008.43
2018-12-16T19:18:48.829Z,1008.44
2018-12-16T19:19:48.717Z,1008.44
2018-12-16T19:20:48.637Z,1008.46
2018-12-16T19:21:48.526Z,1008.44
2018-12-16T19:22:48.534Z,1008.46
2018-12-16T19:23:48.540Z,1008.49
2018-12-16T19:24:48.672Z,1008.51
2018-12-16T19:25:48.657Z,1008.49
2018-12-16T19:26:48.566Z,1008.47
2018-12-16T19:27:48.460Z,1008.48
2018-12-16T19:28:48.467Z,1008.47
2018-12-16T19:29:48.587Z,1008.52
2018-12-16T19:30:48.517Z,1008.56
2018-12-16T19:31:48.493Z,1008.55
2018-12-16T19:32:49.112Z,1008.50
2018-12-16T19:33:48.398Z,1008.52
2018-12-16T19:34:48.608Z,1008.52
2018-12-16T19:35:48.415Z,1008.52
2018-12-16T19:36:48.417Z,1008.56
2018-12-16T19:37:48.434Z,1008.51
2018-12-16T19:38:48.428Z,1008.56
2018-12-16T19:39:48.435Z,1008.54
2018-12-16T19:40:48.339Z,1008.55
2018-12-16T19:41:48.357Z,1008.55
2018-12-16T19:42:48.350Z,1008.59
2018-12-16T19:43:48.357Z,1008.62
2018-12-16T19:44:48.573Z,1008.60